sensor_id;sensor_type;location;lat;lon;timestamp;P1;durP1;ratioP1;P2;durP2;ratioP2
78143;SDS011;67394;52.522;13.622;2023-04-26T00:02:13;7.22;;;1.80;;
78143;SDS011;67394;52.522;13.622;2023-04-26T00:04:40;4.63;;;1.48;;
78143;SDS011;67394;52.522;13.622;2023-04-26T00:07:06;4.38;;;1.58;;
78143;SDS011;67394;52.522;13.622;2023-04-26T00:09:33;4.93;;;1.98;;
78143;SDS011;67394;52.522;13.622;2023-04-26T00:11:59;5.55;;;1.73;;
78143;SDS011;67394;52.522;13.622;2023-04-26T00:14:25;5.40;;;1.45;;
78143;SDS011;67394;52.522;13.622;2023-04-26T00:16:52;4.75;;;1.73;;
78143;SDS011;67394;52.522;13.622;2023-04-26T00:19:18;3.25;;;1.52;;
78143;SDS011;67394;52.522;13.622;2023-04-26T00:21:45;7.55;;;1.70;;
78143;SDS011;67394;52.522;13.622;2023-04-26T00:24:11;7.25;;;1.95;;
78143;SDS011;67394;52.522;13.622;2023-04-26T00:26:37;5.10;;;1.95;;
78143;SDS011;67394;52.522;13.622;2023-04-26T00:29:04;4.28;;;1.38;;
78143;SDS011;67394;52.522;13.622;2023-04-26T00:31:30;3.97;;;1.50;;
78143;SDS011;67394;52.522;13.622;2023-04-26T00:33:56;7.63;;;1.83;;
78143;SDS011;67394;52.522;13.622;2023-04-26T00:36:23;5.50;;;1.90;;
78143;SDS011;67394;52.522;13.622;2023-04-26T00:38:49;4.57;;;1.40;;
78143;SDS011;67394;52.522;13.622;2023-04-26T00:41:16;4.93;;;1.67;;
78143;SDS011;67394;52.522;13.622;2023-04-26T00:43:42;3.42;;;1.50;;
78143;SDS011;67394;52.522;13.622;2023-04-26T00:46:09;6.40;;;1.80;;
78143;SDS011;67394;52.522;13.622;2023-04-26T00:48:36;6.45;;;1.85;;
78143;SDS011;67394;52.522;13.622;2023-04-26T00:51:02;5.57;;;2.22;;
78143;SDS011;67394;52.522;13.622;2023-04-26T00:53:30;6.65;;;1.85;;
78143;SDS011;67394;52.522;13.622;2023-04-26T00:55:57;6.03;;;1.50;;
78143;SDS011;67394;52.522;13.622;2023-04-26T00:58:24;6.70;;;1.98;;
78143;SDS011;67394;52.522;13.622;2023-04-26T01:00:51;7.32;;;1.65;;
78143;SDS011;67394;52.522;13.622;2023-04-26T01:03:17;5.30;;;1.50;;
78143;SDS011;67394;52.522;13.622;2023-04-26T01:05:44;4.30;;;1.48;;
78143;SDS011;67394;52.522;13.622;2023-04-26T01:08:11;6.25;;;1.55;;
78143;SDS011;67394;52.522;13.622;2023-04-26T01:10:37;3.00;;;1.92;;
78143;SDS011;67394;52.522;13.622;2023-04-26T01:13:05;7.45;;;1.63;;
78143;SDS011;67394;52.522;13.622;2023-04-26T01:15:31;4.43;;;1.70;;
78143;SDS011;67394;52.522;13.622;2023-04-26T01:17:58;3.65;;;1.38;;
78143;SDS011;67394;52.522;13.622;2023-04-26T01:20:24;5.22;;;1.88;;
78143;SDS011;67394;52.522;13.622;2023-04-26T01:22:51;4.50;;;1.80;;
78143;SDS011;67394;52.522;13.622;2023-04-26T01:25:17;4.15;;;1.75;;
78143;SDS011;67394;52.522;13.622;2023-04-26T01:27:44;6.47;;;2.10;;
78143;SDS011;67394;52.522;13.622;2023-04-26T01:30:10;2.38;;;1.60;;
78143;SDS011;67394;52.522;13.622;2023-04-26T01:32:36;5.82;;;1.48;;
78143;SDS011;67394;52.522;13.622;2023-04-26T01:35:03;3.78;;;1.88;;
78143;SDS011;67394;52.522;13.622;2023-04-26T01:37:30;4.05;;;1.50;;
78143;SDS011;67394;52.522;13.622;2023-04-26T01:39:56;4.90;;;2.00;;
78143;SDS011;67394;52.522;13.622;2023-04-26T01:42:22;3.80;;;1.70;;
78143;SDS011;67394;52.522;13.622;2023-04-26T01:44:49;10.80;;;2.13;;
78143;SDS011;67394;52.522;13.622;2023-04-26T01:47:15;6.07;;;1.92;;
78143;SDS011;67394;52.522;13.622;2023-04-26T01:49:41;5.07;;;1.50;;
78143;SDS011;67394;52.522;13.622;2023-04-26T01:52:08;3.15;;;1.70;;
78143;SDS011;67394;52.522;13.622;2023-04-26T01:54:34;5.65;;;1.85;;
78143;SDS011;67394;52.522;13.622;2023-04-26T01:57:00;4.47;;;1.80;;
78143;SDS011;67394;52.522;13.622;2023-04-26T01:59:27;4.68;;;1.83;;
78143;SDS011;67394;52.522;13.622;2023-04-26T02:01:53;7.43;;;2.00;;
78143;SDS011;67394;52.522;13.622;2023-04-26T02:04:19;3.60;;;1.48;;
78143;SDS011;67394;52.522;13.622;2023-04-26T02:06:46;5.53;;;2.00;;
78143;SDS011;67394;52.522;13.622;2023-04-26T02:09:12;10.38;;;2.15;;
78143;SDS011;67394;52.522;13.622;2023-04-26T02:11:38;5.65;;;2.03;;
78143;SDS011;67394;52.522;13.622;2023-04-26T02:14:05;3.88;;;1.85;;
78143;SDS011;67394;52.522;13.622;2023-04-26T02:16:32;9.13;;;1.83;;
78143;SDS011;67394;52.522;13.622;2023-04-26T02:18:58;5.25;;;1.48;;
78143;SDS011;67394;52.522;13.622;2023-04-26T02:21:24;3.45;;;1.60;;
78143;SDS011;67394;52.522;13.622;2023-04-26T02:23:51;5.53;;;1.85;;
78143;SDS011;67394;52.522;13.622;2023-04-26T02:26:18;2.80;;;1.25;;
78143;SDS011;67394;52.522;13.622;2023-04-26T02:28:44;5.18;;;1.75;;
78143;SDS011;67394;52.522;13.622;2023-04-26T02:31:10;4.93;;;1.98;;
78143;SDS011;67394;52.522;13.622;2023-04-26T02:33:37;3.95;;;1.60;;
78143;SDS011;67394;52.522;13.622;2023-04-26T02:36:03;4.65;;;1.60;;
78143;SDS011;67394;52.522;13.622;2023-04-26T02:38:33;7.50;;;1.70;;
78143;SDS011;67394;52.522;13.622;2023-04-26T02:41:00;6.63;;;1.88;;
78143;SDS011;67394;52.522;13.622;2023-04-26T02:43:28;2.88;;;1.65;;
78143;SDS011;67394;52.522;13.622;2023-04-26T02:45:54;5.85;;;2.03;;
78143;SDS011;67394;52.522;13.622;2023-04-26T02:48:21;6.18;;;1.85;;
78143;SDS011;67394;52.522;13.622;2023-04-26T02:50:47;7.65;;;1.95;;
78143;SDS011;67394;52.522;13.622;2023-04-26T02:53:13;5.43;;;1.73;;
78143;SDS011;67394;52.522;13.622;2023-04-26T02:55:40;6.22;;;1.60;;
78143;SDS011;67394;52.522;13.622;2023-04-26T02:58:06;6.13;;;1.70;;
78143;SDS011;67394;52.522;13.622;2023-04-26T03:00:32;5.72;;;1.70;;
78143;SDS011;67394;52.522;13.622;2023-04-26T03:02:59;9.10;;;1.75;;
78143;SDS011;67394;52.522;13.622;2023-04-26T03:05:25;3.45;;;1.60;;
78143;SDS011;67394;52.522;13.622;2023-04-26T03:07:52;4.57;;;2.15;;
78143;SDS011;67394;52.522;13.622;2023-04-26T03:10:18;9.88;;;2.65;;
78143;SDS011;67394;52.522;13.622;2023-04-26T03:12:44;4.55;;;1.90;;
78143;SDS011;67394;52.522;13.622;2023-04-26T03:15:11;9.85;;;2.35;;
78143;SDS011;67394;52.522;13.622;2023-04-26T03:17:37;8.30;;;2.28;;
78143;SDS011;67394;52.522;13.622;2023-04-26T03:20:03;5.25;;;1.58;;
78143;SDS011;67394;52.522;13.622;2023-04-26T03:22:30;4.57;;;1.90;;
78143;SDS011;67394;52.522;13.622;2023-04-26T03:24:57;8.18;;;2.13;;
78143;SDS011;67394;52.522;13.622;2023-04-26T03:27:23;3.55;;;1.75;;
78143;SDS011;67394;52.522;13.622;2023-04-26T03:29:49;8.18;;;2.38;;
78143;SDS011;67394;52.522;13.622;2023-04-26T03:32:16;5.47;;;1.70;;
78143;SDS011;67394;52.522;13.622;2023-04-26T03:34:42;9.93;;;2.45;;
78143;SDS011;67394;52.522;13.622;2023-04-26T03:37:09;5.72;;;1.60;;
78143;SDS011;67394;52.522;13.622;2023-04-26T03:39:35;9.98;;;2.15;;
78143;SDS011;67394;52.522;13.622;2023-04-26T03:42:01;3.25;;;1.63;;
78143;SDS011;67394;52.522;13.622;2023-04-26T03:44:28;9.00;;;2.20;;
78143;SDS011;67394;52.522;13.622;2023-04-26T03:46:56;5.10;;;1.90;;
78143;SDS011;67394;52.522;13.622;2023-04-26T03:49:22;4.85;;;1.90;;
78143;SDS011;67394;52.522;13.622;2023-04-26T03:51:49;5.97;;;2.47;;
78143;SDS011;67394;52.522;13.622;2023-04-26T03:54:15;5.32;;;1.88;;
78143;SDS011;67394;52.522;13.622;2023-04-26T03:56:41;5.40;;;2.10;;
78143;SDS011;67394;52.522;13.622;2023-04-26T03:59:08;2.95;;;1.85;;
78143;SDS011;67394;52.522;13.622;2023-04-26T04:01:34;3.22;;;1.55;;
78143;SDS011;67394;52.522;13.622;2023-04-26T04:04:00;4.18;;;2.33;;
78143;SDS011;67394;52.522;13.622;2023-04-26T04:06:27;4.85;;;1.95;;
78143;SDS011;67394;52.522;13.622;2023-04-26T04:08:54;9.45;;;2.22;;
78143;SDS011;67394;52.522;13.622;2023-04-26T04:11:20;4.88;;;1.92;;
78143;SDS011;67394;52.522;13.622;2023-04-26T04:13:47;5.55;;;2.42;;
78143;SDS011;67394;52.522;13.622;2023-04-26T04:16:13;6.55;;;2.13;;
78143;SDS011;67394;52.522;13.622;2023-04-26T04:18:39;5.70;;;2.30;;
78143;SDS011;67394;52.522;13.622;2023-04-26T04:21:06;5.60;;;2.47;;
78143;SDS011;67394;52.522;13.622;2023-04-26T04:23:32;9.88;;;2.25;;
78143;SDS011;67394;52.522;13.622;2023-04-26T04:25:58;7.60;;;1.80;;
78143;SDS011;67394;52.522;13.622;2023-04-26T04:28:25;6.47;;;2.13;;
78143;SDS011;67394;52.522;13.622;2023-04-26T04:30:51;5.72;;;3.00;;
78143;SDS011;67394;52.522;13.622;2023-04-26T04:33:17;6.13;;;2.05;;
78143;SDS011;67394;52.522;13.622;2023-04-26T04:35:44;5.57;;;2.03;;
78143;SDS011;67394;52.522;13.622;2023-04-26T04:38:13;4.35;;;1.88;;
78143;SDS011;67394;52.522;13.622;2023-04-26T04:40:39;6.13;;;2.53;;
78143;SDS011;67394;52.522;13.622;2023-04-26T04:43:06;5.20;;;1.95;;
78143;SDS011;67394;52.522;13.622;2023-04-26T04:45:32;6.72;;;2.03;;
78143;SDS011;67394;52.522;13.622;2023-04-26T04:47:58;10.52;;;2.30;;
78143;SDS011;67394;52.522;13.622;2023-04-26T04:50:25;9.05;;;2.40;;
78143;SDS011;67394;52.522;13.622;2023-04-26T04:52:51;3.88;;;2.28;;
78143;SDS011;67394;52.522;13.622;2023-04-26T04:55:18;5.72;;;1.67;;
78143;SDS011;67394;52.522;13.622;2023-04-26T04:57:44;4.20;;;1.98;;
78143;SDS011;67394;52.522;13.622;2023-04-26T05:00:11;5.18;;;1.90;;
78143;SDS011;67394;52.522;13.622;2023-04-26T05:02:37;7.65;;;2.20;;
78143;SDS011;67394;52.522;13.622;2023-04-26T05:05:04;7.95;;;2.28;;
78143;SDS011;67394;52.522;13.622;2023-04-26T05:07:31;3.60;;;1.98;;
78143;SDS011;67394;52.522;13.622;2023-04-26T05:09:57;4.93;;;1.73;;
78143;SDS011;67394;52.522;13.622;2023-04-26T05:12:24;6.10;;;1.80;;
78143;SDS011;67394;52.522;13.622;2023-04-26T05:14:50;7.53;;;2.58;;
78143;SDS011;67394;52.522;13.622;2023-04-26T05:17:17;8.15;;;2.38;;
78143;SDS011;67394;52.522;13.622;2023-04-26T05:19:43;7.03;;;2.72;;
78143;SDS011;67394;52.522;13.622;2023-04-26T05:22:10;9.68;;;2.03;;
78143;SDS011;67394;52.522;13.622;2023-04-26T05:24:37;4.90;;;2.40;;
78143;SDS011;67394;52.522;13.622;2023-04-26T05:27:03;6.03;;;2.47;;
78143;SDS011;67394;52.522;13.622;2023-04-26T05:29:29;8.02;;;2.42;;
78143;SDS011;67394;52.522;13.622;2023-04-26T05:31:56;7.75;;;2.33;;
78143;SDS011;67394;52.522;13.622;2023-04-26T05:34:22;4.10;;;2.17;;
78143;SDS011;67394;52.522;13.622;2023-04-26T05:36:49;5.07;;;2.05;;
78143;SDS011;67394;52.522;13.622;2023-04-26T05:39:15;6.45;;;2.45;;
78143;SDS011;67394;52.522;13.622;2023-04-26T05:41:42;6.55;;;2.08;;
78143;SDS011;67394;52.522;13.622;2023-04-26T05:44:08;4.97;;;2.15;;
78143;SDS011;67394;52.522;13.622;2023-04-26T05:46:35;8.20;;;2.50;;
78143;SDS011;67394;52.522;13.622;2023-04-26T05:49:01;6.32;;;2.35;;
78143;SDS011;67394;52.522;13.622;2023-04-26T05:51:27;6.53;;;3.00;;
78143;SDS011;67394;52.522;13.622;2023-04-26T05:53:54;10.30;;;2.88;;
78143;SDS011;67394;52.522;13.622;2023-04-26T05:56:20;5.82;;;2.10;;
78143;SDS011;67394;52.522;13.622;2023-04-26T05:58:46;6.15;;;2.47;;
78143;SDS011;67394;52.522;13.622;2023-04-26T06:01:13;4.80;;;2.05;;
78143;SDS011;67394;52.522;13.622;2023-04-26T06:03:39;7.03;;;2.20;;
78143;SDS011;67394;52.522;13.622;2023-04-26T06:06:06;5.05;;;2.45;;
78143;SDS011;67394;52.522;13.622;2023-04-26T06:08:32;10.00;;;2.88;;
78143;SDS011;67394;52.522;13.622;2023-04-26T06:10:59;7.95;;;2.00;;
78143;SDS011;67394;52.522;13.622;2023-04-26T06:13:25;6.95;;;2.10;;
78143;SDS011;67394;52.522;13.622;2023-04-26T06:15:52;7.15;;;2.30;;
78143;SDS011;67394;52.522;13.622;2023-04-26T06:18:19;6.47;;;2.10;;
78143;SDS011;67394;52.522;13.622;2023-04-26T06:20:45;5.25;;;2.53;;
78143;SDS011;67394;52.522;13.622;2023-04-26T06:23:11;4.80;;;1.92;;
78143;SDS011;67394;52.522;13.622;2023-04-26T06:25:38;8.60;;;2.90;;
78143;SDS011;67394;52.522;13.622;2023-04-26T06:28:04;7.57;;;2.13;;
78143;SDS011;67394;52.522;13.622;2023-04-26T06:30:30;7.18;;;2.05;;
78143;SDS011;67394;52.522;13.622;2023-04-26T06:32:57;4.25;;;2.08;;
78143;SDS011;67394;52.522;13.622;2023-04-26T06:35:23;6.53;;;2.10;;
78143;SDS011;67394;52.522;13.622;2023-04-26T06:37:49;10.93;;;2.60;;
78143;SDS011;67394;52.522;13.622;2023-04-26T06:40:16;4.82;;;1.98;;
78143;SDS011;67394;52.522;13.622;2023-04-26T06:42:42;8.15;;;2.78;;
78143;SDS011;67394;52.522;13.622;2023-04-26T06:45:09;7.97;;;2.15;;
78143;SDS011;67394;52.522;13.622;2023-04-26T06:47:36;3.97;;;2.20;;
78143;SDS011;67394;52.522;13.622;2023-04-26T06:50:02;7.15;;;2.30;;
78143;SDS011;67394;52.522;13.622;2023-04-26T06:52:30;8.77;;;2.30;;
78143;SDS011;67394;52.522;13.622;2023-04-26T06:54:56;5.45;;;2.28;;
78143;SDS011;67394;52.522;13.622;2023-04-26T06:57:23;8.07;;;2.60;;
78143;SDS011;67394;52.522;13.622;2023-04-26T06:59:49;5.80;;;2.22;;
78143;SDS011;67394;52.522;13.622;2023-04-26T07:02:15;4.05;;;1.85;;
78143;SDS011;67394;52.522;13.622;2023-04-26T07:04:42;6.35;;;2.38;;
78143;SDS011;67394;52.522;13.622;2023-04-26T07:07:09;8.43;;;2.65;;
78143;SDS011;67394;52.522;13.622;2023-04-26T07:09:38;8.45;;;2.60;;
78143;SDS011;67394;52.522;13.622;2023-04-26T07:12:04;6.70;;;2.50;;
78143;SDS011;67394;52.522;13.622;2023-04-26T07:14:31;6.75;;;2.78;;
78143;SDS011;67394;52.522;13.622;2023-04-26T07:16:57;8.27;;;2.22;;
78143;SDS011;67394;52.522;13.622;2023-04-26T07:19:23;5.35;;;2.60;;
78143;SDS011;67394;52.522;13.622;2023-04-26T07:21:50;5.10;;;2.35;;
78143;SDS011;67394;52.522;13.622;2023-04-26T07:24:16;5.60;;;1.85;;
78143;SDS011;67394;52.522;13.622;2023-04-26T07:26:42;6.00;;;2.05;;
78143;SDS011;67394;52.522;13.622;2023-04-26T07:29:09;6.05;;;2.20;;
78143;SDS011;67394;52.522;13.622;2023-04-26T07:31:35;6.88;;;2.53;;
78143;SDS011;67394;52.522;13.622;2023-04-26T07:34:01;5.05;;;1.92;;
78143;SDS011;67394;52.522;13.622;2023-04-26T07:36:28;8.48;;;1.98;;
78143;SDS011;67394;52.522;13.622;2023-04-26T07:38:54;7.90;;;2.40;;
78143;SDS011;67394;52.522;13.622;2023-04-26T07:41:20;3.80;;;2.13;;
78143;SDS011;67394;52.522;13.622;2023-04-26T07:43:46;9.25;;;3.15;;
78143;SDS011;67394;52.522;13.622;2023-04-26T07:46:13;6.07;;;2.20;;
78143;SDS011;67394;52.522;13.622;2023-04-26T07:48:39;4.57;;;1.88;;
78143;SDS011;67394;52.522;13.622;2023-04-26T07:51:09;8.38;;;1.90;;
78143;SDS011;67394;52.522;13.622;2023-04-26T07:53:37;5.90;;;1.92;;
78143;SDS011;67394;52.522;13.622;2023-04-26T07:56:04;5.80;;;1.75;;
78143;SDS011;67394;52.522;13.622;2023-04-26T07:58:31;5.90;;;2.15;;
78143;SDS011;67394;52.522;13.622;2023-04-26T08:00:58;4.13;;;1.70;;
78143;SDS011;67394;52.522;13.622;2023-04-26T08:03:25;4.82;;;1.80;;
78143;SDS011;67394;52.522;13.622;2023-04-26T08:05:52;6.78;;;2.33;;
78143;SDS011;67394;52.522;13.622;2023-04-26T08:08:19;6.10;;;2.08;;
78143;SDS011;67394;52.522;13.622;2023-04-26T08:10:48;8.20;;;2.00;;
78143;SDS011;67394;52.522;13.622;2023-04-26T08:13:15;4.00;;;1.75;;
78143;SDS011;67394;52.522;13.622;2023-04-26T08:15:41;5.32;;;2.00;;
78143;SDS011;67394;52.522;13.622;2023-04-26T08:18:07;4.28;;;2.40;;
78143;SDS011;67394;52.522;13.622;2023-04-26T08:20:34;8.40;;;1.98;;
78143;SDS011;67394;52.522;13.622;2023-04-26T08:23:00;2.47;;;1.58;;
78143;SDS011;67394;52.522;13.622;2023-04-26T08:25:26;3.17;;;1.60;;
78143;SDS011;67394;52.522;13.622;2023-04-26T08:27:53;4.03;;;1.50;;
78143;SDS011;67394;52.522;13.622;2023-04-26T08:30:19;2.67;;;1.55;;
78143;SDS011;67394;52.522;13.622;2023-04-26T08:32:45;5.72;;;1.67;;
78143;SDS011;67394;52.522;13.622;2023-04-26T08:35:12;5.32;;;1.52;;
78143;SDS011;67394;52.522;13.622;2023-04-26T08:37:38;4.70;;;1.50;;
78143;SDS011;67394;52.522;13.622;2023-04-26T08:40:05;2.88;;;1.75;;
78143;SDS011;67394;52.522;13.622;2023-04-26T08:42:32;5.40;;;2.08;;
78143;SDS011;67394;52.522;13.622;2023-04-26T08:45:06;4.10;;;1.77;;
78143;SDS011;67394;52.522;13.622;2023-04-26T08:47:37;7.40;;;2.05;;
78143;SDS011;67394;52.522;13.622;2023-04-26T08:50:05;5.80;;;2.65;;
78143;SDS011;67394;52.522;13.622;2023-04-26T08:52:33;4.25;;;1.58;;
78143;SDS011;67394;52.522;13.622;2023-04-26T08:57:27;5.03;;;1.88;;
78143;SDS011;67394;52.522;13.622;2023-04-26T08:59:56;2.55;;;1.10;;
78143;SDS011;67394;52.522;13.622;2023-04-26T09:02:23;8.00;;;2.42;;
78143;SDS011;67394;52.522;13.622;2023-04-26T09:07:20;5.15;;;2.08;;
78143;SDS011;67394;52.522;13.622;2023-04-26T09:09:52;5.78;;;2.58;;
78143;SDS011;67394;52.522;13.622;2023-04-26T09:12:20;4.10;;;1.70;;
78143;SDS011;67394;52.522;13.622;2023-04-26T09:14:46;5.53;;;2.00;;
78143;SDS011;67394;52.522;13.622;2023-04-26T09:19:56;3.50;;;1.88;;
78143;SDS011;67394;52.522;13.622;2023-04-26T09:22:29;3.35;;;2.50;;
78143;SDS011;67394;52.522;13.622;2023-04-26T09:24:57;4.93;;;2.20;;
78143;SDS011;67394;52.522;13.622;2023-04-26T09:27:37;4.00;;;1.48;;
78143;SDS011;67394;52.522;13.622;2023-04-26T09:30:23;6.03;;;2.00;;
78143;SDS011;67394;52.522;13.622;2023-04-26T09:32:53;4.63;;;2.08;;
78143;SDS011;67394;52.522;13.622;2023-04-26T09:37:53;6.10;;;1.88;;
78143;SDS011;67394;52.522;13.622;2023-04-26T09:40:27;4.80;;;1.77;;
78143;SDS011;67394;52.522;13.622;2023-04-26T09:42:55;4.53;;;1.90;;
78143;SDS011;67394;52.522;13.622;2023-04-26T09:45:54;5.20;;;2.08;;
78143;SDS011;67394;52.522;13.622;2023-04-26T09:48:25;5.07;;;2.10;;
78143;SDS011;67394;52.522;13.622;2023-04-26T09:50:57;6.13;;;1.83;;
78143;SDS011;67394;52.522;13.622;2023-04-26T09:53:45;5.10;;;1.80;;
78143;SDS011;67394;52.522;13.622;2023-04-26T09:56:17;5.93;;;1.98;;
78143;SDS011;67394;52.522;13.622;2023-04-26T09:58:58;6.05;;;1.92;;
78143;SDS011;67394;52.522;13.622;2023-04-26T10:01:25;4.15;;;1.88;;
78143;SDS011;67394;52.522;13.622;2023-04-26T10:03:54;3.13;;;1.75;;
78143;SDS011;67394;52.522;13.622;2023-04-26T10:06:22;4.22;;;1.75;;
78143;SDS011;67394;52.522;13.622;2023-04-26T10:08:49;5.95;;;1.80;;
78143;SDS011;67394;52.522;13.622;2023-04-26T10:11:15;3.95;;;1.80;;
78143;SDS011;67394;52.522;13.622;2023-04-26T10:13:43;5.35;;;2.20;;
78143;SDS011;67394;52.522;13.622;2023-04-26T10:16:09;5.47;;;1.83;;
78143;SDS011;67394;52.522;13.622;2023-04-26T10:18:36;5.50;;;2.00;;
78143;SDS011;67394;52.522;13.622;2023-04-26T10:21:16;2.88;;;1.88;;
78143;SDS011;67394;52.522;13.622;2023-04-26T10:23:47;3.70;;;2.22;;
78143;SDS011;67394;52.522;13.622;2023-04-26T10:29:12;4.68;;;1.95;;
78143;SDS011;67394;52.522;13.622;2023-04-26T10:34:27;8.38;;;2.15;;
78143;SDS011;67394;52.522;13.622;2023-04-26T10:37:12;4.72;;;1.73;;
78143;SDS011;67394;52.522;13.622;2023-04-26T10:39:43;4.68;;;1.67;;
78143;SDS011;67394;52.522;13.622;2023-04-26T10:44:54;3.85;;;1.67;;
78143;SDS011;67394;52.522;13.622;2023-04-26T10:50:08;3.63;;;1.58;;
78143;SDS011;67394;52.522;13.622;2023-04-26T10:52:37;3.00;;;1.58;;
78143;SDS011;67394;52.522;13.622;2023-04-26T10:57:54;4.35;;;1.83;;
78143;SDS011;67394;52.522;13.622;2023-04-26T11:00:24;2.92;;;1.80;;
78143;SDS011;67394;52.522;13.622;2023-04-26T11:02:55;4.55;;;1.90;;
78143;SDS011;67394;52.522;13.622;2023-04-26T11:08:14;5.30;;;2.13;;
78143;SDS011;67394;52.522;13.622;2023-04-26T11:10:45;3.45;;;1.77;;
78143;SDS011;67394;52.522;13.622;2023-04-26T11:13:15;2.63;;;1.58;;
78143;SDS011;67394;52.522;13.622;2023-04-26T11:15:42;4.97;;;1.92;;
78143;SDS011;67394;52.522;13.622;2023-04-26T11:18:08;5.20;;;2.10;;
78143;SDS011;67394;52.522;13.622;2023-04-26T11:20:35;6.43;;;2.40;;
78143;SDS011;67394;52.522;13.622;2023-04-26T11:23:01;2.20;;;1.80;;
78143;SDS011;67394;52.522;13.622;2023-04-26T11:25:28;5.72;;;2.15;;
78143;SDS011;67394;52.522;13.622;2023-04-26T11:27:58;3.80;;;2.20;;
78143;SDS011;67394;52.522;13.622;2023-04-26T11:30:38;4.80;;;2.50;;
78143;SDS011;67394;52.522;13.622;2023-04-26T11:33:05;5.43;;;2.70;;
78143;SDS011;67394;52.522;13.622;2023-04-26T11:35:32;5.88;;;2.83;;
78143;SDS011;67394;52.522;13.622;2023-04-26T11:38:02;4.97;;;3.20;;
78143;SDS011;67394;52.522;13.622;2023-04-26T11:40:30;4.35;;;2.38;;
78143;SDS011;67394;52.522;13.622;2023-04-26T11:42:58;4.40;;;2.35;;
78143;SDS011;67394;52.522;13.622;2023-04-26T11:45:24;5.68;;;2.60;;
78143;SDS011;67394;52.522;13.622;2023-04-26T11:47:51;5.55;;;2.60;;
78143;SDS011;67394;52.522;13.622;2023-04-26T11:50:18;5.65;;;2.85;;
78143;SDS011;67394;52.522;13.622;2023-04-26T11:52:45;3.67;;;2.20;;
78143;SDS011;67394;52.522;13.622;2023-04-26T11:55:11;5.90;;;2.50;;
78143;SDS011;67394;52.522;13.622;2023-04-26T11:57:37;3.83;;;2.20;;
78143;SDS011;67394;52.522;13.622;2023-04-26T12:00:13;5.13;;;2.90;;
78143;SDS011;67394;52.522;13.622;2023-04-26T12:02:46;5.45;;;2.40;;
78143;SDS011;67394;52.522;13.622;2023-04-26T12:05:27;3.83;;;2.45;;
78143;SDS011;67394;52.522;13.622;2023-04-26T12:07:55;6.85;;;2.70;;
78143;SDS011;67394;52.522;13.622;2023-04-26T12:12:59;5.55;;;2.88;;
78143;SDS011;67394;52.522;13.622;2023-04-26T12:15:29;5.70;;;2.80;;
78143;SDS011;67394;52.522;13.622;2023-04-26T12:17:59;4.93;;;2.30;;
78143;SDS011;67394;52.522;13.622;2023-04-26T12:20:31;5.20;;;2.72;;
78143;SDS011;67394;52.522;13.622;2023-04-26T12:23:02;3.50;;;2.50;;
78143;SDS011;67394;52.522;13.622;2023-04-26T12:25:29;5.38;;;2.95;;
78143;SDS011;67394;52.522;13.622;2023-04-26T12:27:55;4.65;;;2.45;;
78143;SDS011;67394;52.522;13.622;2023-04-26T12:30:24;4.20;;;3.15;;
78143;SDS011;67394;52.522;13.622;2023-04-26T12:32:51;6.20;;;2.83;;
78143;SDS011;67394;52.522;13.622;2023-04-26T12:35:18;5.30;;;2.65;;
78143;SDS011;67394;52.522;13.622;2023-04-26T12:37:44;7.18;;;2.50;;
78143;SDS011;67394;52.522;13.622;2023-04-26T12:40:10;4.50;;;2.55;;
78143;SDS011;67394;52.522;13.622;2023-04-26T12:42:37;6.85;;;2.80;;
78143;SDS011;67394;52.522;13.622;2023-04-26T12:45:04;5.63;;;2.67;;
78143;SDS011;67394;52.522;13.622;2023-04-26T12:50:00;3.88;;;2.30;;
78143;SDS011;67394;52.522;13.622;2023-04-26T12:52:26;3.92;;;2.83;;
78143;SDS011;67394;52.522;13.622;2023-04-26T12:54:53;3.65;;;2.80;;
78143;SDS011;67394;52.522;13.622;2023-04-26T12:57:19;3.92;;;2.47;;
78143;SDS011;67394;52.522;13.622;2023-04-26T12:59:46;5.57;;;2.88;;
78143;SDS011;67394;52.522;13.622;2023-04-26T13:02:12;8.02;;;2.70;;
78143;SDS011;67394;52.522;13.622;2023-04-26T13:04:39;5.40;;;2.58;;
78143;SDS011;67394;52.522;13.622;2023-04-26T13:07:07;6.55;;;2.65;;
78143;SDS011;67394;52.522;13.622;2023-04-26T13:09:33;5.47;;;2.78;;
78143;SDS011;67394;52.522;13.622;2023-04-26T13:12:00;6.97;;;2.75;;
78143;SDS011;67394;52.522;13.622;2023-04-26T13:14:26;6.03;;;2.80;;
78143;SDS011;67394;52.522;13.622;2023-04-26T13:16:52;5.47;;;2.30;;
78143;SDS011;67394;52.522;13.622;2023-04-26T13:19:19;8.02;;;2.95;;
78143;SDS011;67394;52.522;13.622;2023-04-26T13:21:45;6.28;;;2.70;;
78143;SDS011;67394;52.522;13.622;2023-04-26T13:24:11;4.85;;;2.60;;
78143;SDS011;67394;52.522;13.622;2023-04-26T13:26:38;7.68;;;2.67;;
78143;SDS011;67394;52.522;13.622;2023-04-26T13:29:04;7.00;;;2.85;;
78143;SDS011;67394;52.522;13.622;2023-04-26T13:31:30;4.22;;;2.80;;
78143;SDS011;67394;52.522;13.622;2023-04-26T13:33:57;5.78;;;2.53;;
78143;SDS011;67394;52.522;13.622;2023-04-26T13:36:23;6.72;;;3.00;;
78143;SDS011;67394;52.522;13.622;2023-04-26T13:38:49;7.32;;;2.78;;
78143;SDS011;67394;52.522;13.622;2023-04-26T13:41:16;6.60;;;2.40;;
78143;SDS011;67394;52.522;13.622;2023-04-26T13:43:42;4.38;;;2.53;;
78143;SDS011;67394;52.522;13.622;2023-04-26T13:46:08;11.95;;;5.07;;
78143;SDS011;67394;52.522;13.622;2023-04-26T13:48:35;7.45;;;3.72;;
78143;SDS011;67394;52.522;13.622;2023-04-26T13:51:01;5.30;;;2.58;;
78143;SDS011;67394;52.522;13.622;2023-04-26T13:55:58;4.15;;;2.80;;
78143;SDS011;67394;52.522;13.622;2023-04-26T13:58:24;4.28;;;2.55;;
78143;SDS011;67394;52.522;13.622;2023-04-26T14:00:50;6.30;;;2.60;;
78143;SDS011;67394;52.522;13.622;2023-04-26T14:03:17;4.35;;;2.80;;
78143;SDS011;67394;52.522;13.622;2023-04-26T14:05:43;6.25;;;3.03;;
78143;SDS011;67394;52.522;13.622;2023-04-26T14:08:10;5.35;;;2.95;;
78143;SDS011;67394;52.522;13.622;2023-04-26T14:10:36;7.75;;;2.30;;
78143;SDS011;67394;52.522;13.622;2023-04-26T14:13:02;5.75;;;2.70;;
78143;SDS011;67394;52.522;13.622;2023-04-26T14:15:29;6.40;;;3.03;;
78143;SDS011;67394;52.522;13.622;2023-04-26T14:17:55;3.05;;;2.35;;
78143;SDS011;67394;52.522;13.622;2023-04-26T14:20:21;3.75;;;2.65;;
78143;SDS011;67394;52.522;13.622;2023-04-26T14:22:48;7.07;;;2.97;;
78143;SDS011;67394;52.522;13.622;2023-04-26T14:25:14;5.60;;;3.03;;
78143;SDS011;67394;52.522;13.622;2023-04-26T14:27:40;4.82;;;2.55;;
78143;SDS011;67394;52.522;13.622;2023-04-26T14:30:07;6.30;;;2.90;;
78143;SDS011;67394;52.522;13.622;2023-04-26T14:32:33;4.63;;;2.85;;
78143;SDS011;67394;52.522;13.622;2023-04-26T14:37:25;4.40;;;2.55;;
78143;SDS011;67394;52.522;13.622;2023-04-26T14:39:51;5.90;;;2.45;;
78143;SDS011;67394;52.522;13.622;2023-04-26T14:42:18;4.45;;;2.50;;
78143;SDS011;67394;52.522;13.622;2023-04-26T14:44:44;3.75;;;2.50;;
78143;SDS011;67394;52.522;13.622;2023-04-26T14:47:10;3.97;;;2.50;;
78143;SDS011;67394;52.522;13.622;2023-04-26T14:49:36;4.97;;;2.45;;
78143;SDS011;67394;52.522;13.622;2023-04-26T14:52:03;4.63;;;2.72;;
78143;SDS011;67394;52.522;13.622;2023-04-26T14:54:29;5.78;;;2.47;;
78143;SDS011;67394;52.522;13.622;2023-04-26T14:57:07;4.68;;;2.60;;
78143;SDS011;67394;52.522;13.622;2023-04-26T14:59:34;4.63;;;2.83;;
78143;SDS011;67394;52.522;13.622;2023-04-26T15:02:00;4.20;;;2.28;;
78143;SDS011;67394;52.522;13.622;2023-04-26T15:04:27;5.78;;;3.25;;
78143;SDS011;67394;52.522;13.622;2023-04-26T15:06:54;5.13;;;2.33;;
78143;SDS011;67394;52.522;13.622;2023-04-26T15:09:20;7.85;;;2.25;;
78143;SDS011;67394;52.522;13.622;2023-04-26T15:11:47;4.13;;;2.08;;